Time;durP1;ratioP1;P1;durP2;ratioP2;P2;SDS_P1;SDS_P2;PMS_P1;PMS_P2;Temp;Humidity;BMP_temperature;BMP_pressure;BME280_temperature;BME280_humidity;BME280_pressure;Samples;Min_cycle;Max_cycle;Signal;HPM_P1;HPM_P2
2022/04/10 00:00:13;;;;;;;;;;;;;;;;;;5027728;28;20372;-91
2022/04/10 00:02:59;;;;;;;;;;;;;;;;;;5019503;28;19923;-88
2022/04/10 00:05:45;;;;;;;;;;;;;;;;;;5029802;28;20341;-91
2022/04/10 00:08:32;;;;;;;;;;;;;;;;;;5025953;28;19913;-80
2022/04/10 00:11:18;;;;;;;;;;;;;;;;;;5020590;28;19920;-87
2022/04/10 00:14:05;;;;;;;;;;;;;;;;;;5015339;28;19936;-86
2022/04/10 00:16:51;;;;;;;;;;;;;;;;;;5017430;28;19917;-88
2022/04/10 00:19:39;;;;;;;;;;;;;;;;;;5017513;28;19913;-88
2022/04/10 00:22:26;;;;;;;;;;;;;;;;;;5037422;28;19917;-88
2022/04/10 00:25:12;;;;;;;;;;;;;;;;;;5026649;28;19917;-88
2022/04/10 00:27:59;;;;;;;;;;;;;;;;;;5030863;28;19921;-88
2022/04/10 00:30:45;;;;;;;;;;;;;;;;;;5039119;28;19921;-88
2022/04/10 00:33:32;;;;;;;;;;;;;;;;;;5011074;28;20392;-88
2022/04/10 00:36:18;;;;;;;;;;;;;;;;;;5026567;28;19909;-86
2022/04/10 00:39:05;;;;;;;;;;;;;;;;;;5024058;28;19923;-87
2022/04/10 00:41:51;;;;;;;;;;;;;;;;;;5033572;28;19925;-87
2022/04/10 00:44:38;;;;;;;;;;;;;;;;;;5043663;28;19909;-89
2022/04/10 00:47:24;;;;;;;;;;;;;;;;;;5029226;28;19919;-88
2022/04/10 00:50:11;;;;;;;;;;;;;;;;;;5018907;28;19925;-88
2022/04/10 00:52:59;;;;;;;;;;;;;;;;;;5016923;28;19917;-88
2022/04/10 00:55:45;;;;;;;;;;;;;;;;;;5029028;28;19910;-88
2022/04/10 00:58:32;;;;;;;;;;;;;;;;;;5034367;28;19916;-88
2022/04/10 01:01:18;;;;;;;;;;;;;;;;;;5035288;28;20301;-89
2022/04/10 01:04:05;;;;;;;;;;;;;;;;;;5030569;28;19920;-88
2022/04/10 01:06:52;;;;;;;;;;;;;;;;;;5032493;28;19913;-88
2022/04/10 01:09:38;;;;;;;;;;;;;;;;;;5031909;28;19917;-91
2022/04/10 01:12:24;;;;;;;;;;;;;;;;;;5034717;28;19913;-88
2022/04/10 01:15:11;;;;;;;;;;;;;;;;;;5025331;28;19915;-87
2022/04/10 01:17:58;;;;;;;;;;;;;;;;;;5030275;28;19932;-89
2022/04/10 01:20:44;;;;;;;;;;;;;;;;;;5038919;28;19913;-88
2022/04/10 01:23:30;;;;;;;;;;;;;;;;;;5021791;28;19910;-87
2022/04/10 01:26:17;;;;;;;;;;;;;;;;;;5038999;28;19910;-88
2022/04/10 01:29:03;;;;;;;;;;;;;;;;;;5044634;28;19921;-87
2022/04/10 01:31:50;;;;;;;;;;;;;;;;;;5043335;28;19913;-88
2022/04/10 01:34:36;;;;;;;;;;;;;;;;;;5051116;28;19953;-87
2022/04/10 01:37:23;;;;;;;;;;;;;;;;;;5050248;28;19913;-87
2022/04/10 01:40:10;;;;;;;;;;;;;;;;;;5038541;28;20333;-87
2022/04/10 01:42:56;;;;;;;;;;;;;;;;;;5046459;28;19921;-88
2022/04/10 01:45:43;;;;;;;;;;;;;;;;;;5037925;28;19909;-89
2022/04/10 01:48:29;;;;;;;;;;;;;;;;;;5036876;28;19913;-88
2022/04/10 01:51:16;;;;;;;;;;;;;;;;;;5037789;28;20269;-88
2022/04/10 01:54:02;;;;;;;;;;;;;;;;;;5022185;28;19921;-89
2022/04/10 01:56:49;;;;;;;;;;;;;;;;;;5044860;28;19909;-88
2022/04/10 01:59:35;;;;;;;;;;;;;;;;;;5052910;28;19917;-87
2022/04/10 02:02:22;;;;;;;;;;;;;;;;;;5030691;28;20005;-87
2022/04/10 02:05:09;;;;;;;;;;;;;;;;;;5030183;28;19924;-89
2022/04/10 02:07:55;;;;;;;;;;;;;;;;;;5035913;28;19913;-88
2022/04/10 02:10:42;;;;;;;;;;;;;;;;;;5038296;28;19931;-88
2022/04/10 02:13:28;;;;;;;;;;;;;;;;;;5035733;28;19914;-88
2022/04/10 02:16:15;;;;;;;;;;;;;;;;;;5033480;28;19913;-88
2022/04/10 02:19:01;;;;;;;;;;;;;;;;;;5045767;28;19916;-88
2022/04/10 02:21:47;;;;;;;;;;;;;;;;;;5054148;28;20365;-88
2022/04/10 02:24:34;;;;;;;;;;;;;;;;;;5055576;28;19920;-88
2022/04/10 02:27:21;;;;;;;;;;;;;;;;;;5028980;28;20289;-88
2022/04/10 02:30:07;;;;;;;;;;;;;;;;;;5019342;28;19921;-88
2022/04/10 02:32:53;;;;;;;;;;;;;;;;;;5023723;28;19920;-88
2022/04/10 02:35:40;;;;;;;;;;;;;;;;;;5022382;28;19928;-87
2022/04/10 02:38:27;;;;;;;;;;;;;;;;;;5029758;28;19935;-87
2022/04/10 02:41:13;;;;;;;;;;;;;;;;;;5035363;28;19928;-87
2022/04/10 02:44:00;;;;;;;;;;;;;;;;;;5050057;28;19917;-85
2022/04/10 02:46:46;;;;;;;;;;;;;;;;;;5034118;28;19917;-86
2022/04/10 02:49:33;;;;;;;;;;;;;;;;;;5038286;28;19946;-86
2022/04/10 02:52:19;;;;;;;;;;;;;;;;;;5021225;28;20000;-86
2022/04/10 02:55:06;;;;;;;;;;;;;;;;;;5019941;28;20281;-86
2022/04/10 02:57:52;;;;;;;;;;;;;;;;;;5033717;28;19909;-87
2022/04/10 03:00:39;;;;;;;;;;;;;;;;;;5033821;28;19927;-85
2022/04/10 03:03:25;;;;;;;;;;;;;;;;;;5031212;28;19924;-86
2022/04/10 03:06:12;;;;;;;;;;;;;;;;;;5029559;28;19919;-86
2022/04/10 03:08:58;;;;;;;;;;;;;;;;;;5030937;28;19921;-85
2022/04/10 03:11:45;;;;;;;;;;;;;;;;;;5033158;28;19936;-86
2022/04/10 03:14:31;;;;;;;;;;;;;;;;;;5033477;28;19913;-88
2022/04/10 03:17:17;;;;;;;;;;;;;;;;;;5032680;28;20289;-88
2022/04/10 03:20:04;;;;;;;;;;;;;;;;;;5027189;28;19916;-86
2022/04/10 03:22:50;;;;;;;;;;;;;;;;;;5032524;28;19924;-88
2022/04/10 03:25:37;;;;;;;;;;;;;;;;;;5030876;28;19916;-86
2022/04/10 03:28:23;;;;;;;;;;;;;;;;;;5032657;28;19928;-89
2022/04/10 03:31:10;;;;;;;;;;;;;;;;;;5042623;28;19917;-87
2022/04/10 03:33:57;;;;;;;;;;;;;;;;;;5019708;28;19978;-88
2022/04/10 03:36:43;;;;;;;;;;;;;;;;;;5021965;28;19924;-88
2022/04/10 03:39:30;;;;;;;;;;;;;;;;;;5033952;28;19928;-87
2022/04/10 03:42:16;;;;;;;;;;;;;;;;;;5020040;28;19912;-87
2022/04/10 03:45:03;;;;;;;;;;;;;;;;;;5027854;28;19917;-87
2022/04/10 03:47:49;;;;;;;;;;;;;;;;;;5029981;28;19916;-88
2022/04/10 03:50:35;;;;;;;;;;;;;;;;;;5032319;28;20523;-87
2022/04/10 03:53:22;;;;;;;;;;;;;;;;;;5031007;28;20016;-87
2022/04/10 03:56:08;;;;;;;;;;;;;;;;;;5028314;28;20266;-84
2022/04/10 03:58:55;;;;;;;;;;;;;;;;;;5048541;28;19916;-87
2022/04/10 04:01:41;;;;;;;;;;;;;;;;;;5017526;28;20304;-86
2022/04/10 04:04:28;;;;;;;;;;;;;;;;;;5032696;28;19913;-86
2022/04/10 04:07:14;;;;;;;;;;;;;;;;;;5032553;28;20392;-86
2022/04/10 04:10:01;;;;;;;;;;;;;;;;;;5031401;28;19964;-86
2022/04/10 04:12:47;;;;;;;;;;;;;;;;;;5030659;28;20281;-87
2022/04/10 04:15:34;;;;;;;;;;;;;;;;;;5032248;28;19913;-87
2022/04/10 04:18:20;;;;;;;;;;;;;;;;;;5031371;28;19913;-88
2022/04/10 04:21:07;;;;;;;;;;;;;;;;;;5031119;28;19932;-87
2022/04/10 04:23:53;;;;;;;;;;;;;;;;;;5016988;28;19921;-88
2022/04/10 04:26:40;;;;;;;;;;;;;;;;;;5022851;28;20372;-88
2022/04/10 04:29:26;;;;;;;;;;;;;;;;;;5014563;28;19923;-88
2022/04/10 04:32:12;;;;;;;;;;;;;;;;;;5014406;28;20304;-89
2022/04/10 04:34:59;;;;;;;;;;;;;;;;;;5030782;28;19924;-88
2022/04/10 04:37:45;;;;;;;;;;;;;;;;;;5031731;28;19913;-88
2022/04/10 04:40:32;;;;;;;;;;;;;;;;;;5024938;28;19913;-86
2022/04/10 04:43:18;;;;;;;;;;;;;;;;;;5032737;28;19920;-87
2022/04/10 04:46:05;;;;;;;;;;;;;;;;;;5022609;28;19914;-87
2022/04/10 04:48:51;;;;;;;;;;;;;;;;;;5046292;28;19912;-88
2022/04/10 04:51:38;;;;;;;;;;;;;;;;;;5038325;28;19909;-87
2022/04/10 04:54:25;;;;;;;;;;;;;;;;;;5011603;28;19925;-87
2022/04/10 04:57:11;;;;;;;;;;;;;;;;;;5030217;28;19913;-87
2022/04/10 04:59:58;;;;;;;;;;;;;;;;;;5030480;28;19914;-87
2022/04/10 05:02:44;;;;;;;;;;;;;;;;;;5026268;28;19913;-87
2022/04/10 05:05:31;;;;;;;;;;;;;;;;;;5021661;28;20320;-88
2022/04/10 05:08:19;;;;;;;;;;;;;;;;;;5019775;28;19924;-88
2022/04/10 05:11:08;;;;;;;;;;;;;;;;;;5016654;28;19928;-86
2022/04/10 05:13:55;;;;;;;;;;;;;;;;;;5034965;28;19913;-88
2022/04/10 05:16:42;;;;;;;;;;;;;;;;;;5017193;28;20274;-87
2022/04/10 05:19:28;;;;;;;;;;;;;;;;;;5018399;28;19910;-87
2022/04/10 05:22:15;;;;;;;;;;;;;;;;;;5007710;28;19910;-88
2022/04/10 05:25:01;;;;;;;;;;;;;;;;;;5026350;28;20016;-86
2022/04/10 05:27:48;;;;;;;;;;;;;;;;;;5032513;28;19929;-88
2022/04/10 05:30:34;;;;;;;;;;;;;;;;;;5022559;28;19924;-88
2022/04/10 05:33:21;;;;;;;;;;;;;;;;;;5036977;28;19917;-88
2022/04/10 05:36:07;;;;;;;;;;;;;;;;;;5058399;28;20039;-89
2022/04/10 05:38:54;;;;;;;;;;;;;;;;;;5042935;28;20281;-89
2022/04/10 05:41:40;;;;;;;;;;;;;;;;;;5033080;28;19910;-90
2022/04/10 05:44:27;;;;;;;;;;;;;;;;;;5027234;28;20277;-88
2022/04/10 05:47:13;;;;;;;;;;;;;;;;;;5024354;28;20295;-88
2022/04/10 05:50:00;;;;;;;;;;;;;;;;;;5034668;28;19917;-90
2022/04/10 05:52:46;;;;;;;;;;;;;;;;;;5034205;28;19920;-90
2022/04/10 05:55:33;;;;;;;;;;;;;;;;;;5045209;28;19913;-88
2022/04/10 05:58:19;;;;;;;;;;;;;;;;;;5031526;28;19919;-86
2022/04/10 06:01:06;;;;;;;;;;;;;;;;;;5029682;28;19913;-89
2022/04/10 06:03:52;;;;;;;;;;;;;;;;;;5026031;28;19913;-79
2022/04/10 06:06:39;;;;;;;;;;;;;;;;;;5033236;28;20377;-79
2022/04/10 06:09:25;;;;;;;;;;;;;;;;;;5021254;28;19922;-78
2022/04/10 06:12:12;;;;;;;;;;;;;;;;;;5020961;28;19925;-78
2022/04/10 06:14:58;;;;;;;;;;;;;;;;;;5034341;28;20301;-77
2022/04/10 06:17:45;;;;;;;;;;;;;;;;;;5021613;28;20300;-79
2022/04/10 06:20:31;;;;;;;;;;;;;;;;;;5016443;28;19914;-82
2022/04/10 06:23:20;;;;;;;;;;;;;;;;;;5031671;28;19915;-81
2022/04/10 06:26:06;;;;;;;;;;;;;;;;;;5029470;28;19998;-80
2022/04/10 06:28:53;;;;;;;;;;;;;;;;;;5031895;28;19928;-82
2022/04/10 06:31:39;;;;;;;;;;;;;;;;;;5031108;28;19917;-82
2022/04/10 06:34:26;;;;;;;;;;;;;;;;;;5031783;28;19916;-81
2022/04/10 06:37:14;;;;;;;;;;;;;;;;;;5029880;28;20025;-81
2022/04/10 06:40:00;;;;;;;;;;;;;;;;;;5018666;28;19936;-82
2022/04/10 06:42:47;;;;;;;;;;;;;;;;;;5032094;28;19924;-81
2022/04/10 06:45:33;;;;;;;;;;;;;;;;;;5029816;28;19917;-81
2022/04/10 06:48:20;;;;;;;;;;;;;;;;;;5026857;28;19932;-78
2022/04/10 06:51:07;;;;;;;;;;;;;;;;;;5025556;28;19921;-78
2022/04/10 06:53:54;;;;;;;;;;;;;;;;;;5029520;28;19920;-79
2022/04/10 06:56:40;;;;;;;;;;;;;;;;;;5031586;28;19943;-80
2022/04/10 06:59:26;;;;;;;;;;;;;;;;;;5028555;28;19919;-79
2022/04/10 07:02:13;;;;;;;;;;;;;;;;;;5024968;28;19927;-79
2022/04/10 07:04:59;;;;;;;;;;;;;;;;;;5029132;28;19910;-79
2022/04/10 07:07:46;;;;;;;;;;;;;;;;;;5031082;28;19922;-79
2022/04/10 07:10:33;;;;;;;;;;;;;;;;;;5025281;28;20649;-78
2022/04/10 07:13:19;;;;;;;;;;;;;;;;;;5025851;28;19913;-81
2022/04/10 07:16:06;;;;;;;;;;;;;;;;;;5022559;28;20306;-79
2022/04/10 07:18:52;;;;;;;;;;;;;;;;;;5015106;28;19917;-80
2022/04/10 07:24:43;;;;;;;;;;;;;;;;;;5024089;28;19924;-80
2022/04/10 07:27:30;;;;;;;;;;;;;;;;;;5041735;28;19928;-80
2022/04/10 07:30:16;;;;;;;;;;;;;;;;;;5016371;28;19924;-80
2022/04/10 07:33:03;;;;;;;;;;;;;;;;;;5024218;28;19940;-81
2022/04/10 07:35:49;;;;;;;;;;;;;;;;;;5021143;28;19933;-80
2022/04/10 07:38:36;;;;;;;;;;;;;;;;;;5006952;28;19949;-81
2022/04/10 07:41:22;;;;;;;;;;;;;;;;;;5014612;28;19916;-80
2022/04/10 07:44:09;;;;;;;;;;;;;;;;;;5017526;28;19921;-81
2022/04/10 07:50:01;;;;;;;;;;;;;;;;;;5031011;28;19923;-81
2022/04/10 07:52:47;;;;;;;;;;;;;;;;;;5032556;28;20356;-82
2022/04/10 07:55:34;;;;;;;;;;;;;;;;;;5010402;28;19927;-81
2022/04/10 07:58:20;;;;;;;;;;;;;;;;;;5018576;28;19923;-81
2022/04/10 08:01:07;;;;;;;;;;;;;;;;;;5030861;28;19909;-81
2022/04/10 08:03:53;;;;;;;;;;;;;;;;;;5027296;28;19924;-80
2022/04/10 08:06:40;;;;;;;;;;;;;;;;;;5024447;28;20300;-82
2022/04/10 08:09:26;;;;;;;;;;;;;;;;;;5024827;28;19924;-82
2022/04/10 08:12:12;;;;;;;;;;;;;;;;;;5028425;28;19923;-82
2022/04/10 08:14:59;;;;;;;;;;;;;;;;;;5023152;28;19913;-82
2022/04/10 08:17:45;;;;;;;;;;;;;;;;;;5026147;28;19917;-82
2022/04/10 08:20:32;;;;;;;;;;;;;;;;;;5029935;28;19920;-82
2022/04/10 08:23:18;;;;;;;;;;;;;;;;;;5029949;28;20423;-82
2022/04/10 08:26:05;;;;;;;;;;;;;;;;;;5032144;28;19909;-82
2022/04/10 08:28:51;;;;;;;;;;;;;;;;;;5009390;28;19932;-82
2022/04/10 08:31:38;;;;;;;;;;;;;;;;;;5028401;28;19928;-82
2022/04/10 08:34:24;;;;;;;;;;;;;;;;;;5019735;28;19917;-82
2022/04/10 08:37:11;;;;;;;;;;;;;;;;;;5013186;28;19910;-81
2022/04/10 08:39:57;;;;;;;;;;;;;;;;;;5026379;28;19913;-82
2022/04/10 08:42:44;;;;;;;;;;;;;;;;;;5025285;28;20289;-82
2022/04/10 08:45:30;;;;;;;;;;;;;;;;;;5033023;28;19910;-82
2022/04/10 08:48:17;;;;;;;;;;;;;;;;;;5029798;28;20369;-81
2022/04/10 08:51:05;;;;;;;;;;;;;;;;;;5013704;28;19947;-82
2022/04/10 08:53:52;;;;;;;;;;;;;;;;;;5021421;28;19919;-82
2022/04/10 08:56:38;;;;;;;;;;;;;;;;;;5018328;28;20404;-81
2022/04/10 08:59:25;;;;;;;;;;;;;;;;;;5033051;28;19924;-81
2022/04/10 09:02:11;;;;;;;;;;;;;;;;;;5024342;28;19923;-81
2022/04/10 09:04:58;;;;;;;;;;;;;;;;;;5012371;28;20366;-80
2022/04/10 09:07:44;;;;;;;;;;;;;;;;;;5013295;28;19989;-81
2022/04/10 09:10:31;;;;;;;;;;;;;;;;;;5025892;28;19921;-82
2022/04/10 09:13:17;;;;;;;;;;;;;;;;;;5017830;28;19922;-82
2022/04/10 09:16:03;;;;;;;;;;;;;;;;;;5022335;28;20393;-81
2022/04/10 09:18:54;;;;;;;;;;;;;;;;;;5019353;28;19924;-83
2022/04/10 09:21:44;;;;;;;;;;;;;;;;;;5021864;28;19917;-85
2022/04/10 09:24:31;;;;;;;;;;;;;;;;;;5021109;28;20289;-84
2022/04/10 09:27:17;;;;;;;;;;;;;;;;;;5022518;28;19916;-83
2022/04/10 09:30:10;;;;;;;;;;;;;;;;;;5027208;28;19921;-83
2022/04/10 09:32:56;;;;;;;;;;;;;;;;;;5008748;28;19910;-84
2022/04/10 09:35:43;;;;;;;;;;;;;;;;;;5007497;28;19909;-84
2022/04/10 09:38:30;;;;;;;;;;;;;;;;;;5024230;28;19909;-83
2022/04/10 09:41:17;;;;;;;;;;;;;;;;;;5018778;28;19909;-83
2022/04/10 09:44:03;;;;;;;;;;;;;;;;;;5023979;28;19923;-80
2022/04/10 09:46:49;;;;;;;;;;;;;;;;;;5029728;28;20505;-80
2022/04/10 09:49:36;;;;;;;;;;;;;;;;;;5021060;28;19917;-81
2022/04/10 09:52:22;;;;;;;;;;;;;;;;;;5027220;28;20280;-82
2022/04/10 09:55:10;;;;;;;;;;;;;;;;;;5025262;28;19913;-81
2022/04/10 09:57:56;;;;;;;;;;;;;;;;;;5016321;28;19910;-82
2022/04/10 10:00:43;;;;;;;;;;;;;;;;;;5032170;28;20461;-82
2022/04/10 10:03:29;;;;;;;;;;;;;;;;;;5024720;28;19910;-82
2022/04/10 10:06:16;;;;;;;;;;;;;;;;;;5024642;28;19909;-81
2022/04/10 10:09:02;;;;;;;;;;;;;;;;;;5030176;28;19920;-81
2022/04/10 10:11:49;;;;;;;;;;;;;;;;;;5034346;28;19917;-81
2022/04/10 10:14:35;;;;;;;;;;;;;;;;;;5033713;28;19920;-80
2022/04/10 10:17:22;;;;;;;;;;;;;;;;;;5025392;28;19917;-81
2022/04/10 10:20:09;;;;;;;;;;;;;;;;;;5028061;28;19914;-83
2022/04/10 10:22:56;;;;;;;;;;;;;;;;;;5024919;28;19917;-81
2022/04/10 10:25:42;;;;;;;;;;;;;;;;;;5027570;28;19918;-82
2022/04/10 10:28:29;;;;;;;;;;;;;;;;;;5025725;28;19921;-81
2022/04/10 10:31:16;;;;;;;;;;;;;;;;;;5035964;28;19921;-82
2022/04/10 10:34:02;;;;;;;;;;;;;;;;;;5025266;28;19917;-81
2022/04/10 10:36:49;;;;;;;;;;;;;;;;;;5024393;28;19915;-82
2022/04/10 10:39:35;;;;;;;;;;;;;;;;;;5028916;28;19909;-81
2022/04/10 10:42:22;;;;;;;;;;;;;;;;;;5031170;28;19914;-81
2022/04/10 10:45:08;;;;;;;;;;;;;;;;;;5019559;28;20369;-81
2022/04/10 10:47:55;;;;;;;;;;;;;;;;;;5031999;28;19909;-84
2022/04/10 10:50:41;;;;;;;;;;;;;;;;;;5027392;28;20279;-82
2022/04/10 10:53:28;;;;;;;;;;;;;;;;;;5026469;28;19909;-81
2022/04/10 10:56:14;;;;;;;;;;;;;;;;;;5029539;28;19913;-82
2022/04/10 10:59:04;;;;;;;;;;;;;;;;;;5036670;28;19940;-83
2022/04/10 11:01:50;;;;;;;;;;;;;;;;;;5023936;28;19916;-85
2022/04/10 11:04:37;;;;;;;;;;;;;;;;;;5022031;28;19909;-83
2022/04/10 11:07:24;;;;;;;;;;;;;;;;;;5026688;28;20284;-81
2022/04/10 11:10:10;;;;;;;;;;;;;;;;;;5020929;28;20362;-80
2022/04/10 11:12:57;;;;;;;;;;;;;;;;;;5029519;28;19909;-81
2022/04/10 11:15:43;;;;;;;;;;;;;;;;;;5020295;28;19918;-81
2022/04/10 11:18:30;;;;;;;;;;;;;;;;;;5018864;28;19909;-81
2022/04/10 11:21:17;;;;;;;;;;;;;;;;;;5027722;28;19909;-81
2022/04/10 11:24:03;;;;;;;;;;;;;;;;;;5026507;28;19913;-81
2022/04/10 11:26:50;;;;;;;;;;;;;;;;;;5022712;28;19909;-82
2022/04/10 11:29:36;;;;;;;;;;;;;;;;;;5025869;28;20361;-82
2022/04/10 11:32:23;;;;;;;;;;;;;;;;;;5018223;28;19924;-81
2022/04/10 11:35:09;;;;;;;;;;;;;;;;;;5025745;28;19925;-82
2022/04/10 11:37:56;;;;;;;;;;;;;;;;;;5026891;28;19917;-82
2022/04/10 11:40:47;;;;;;;;;;;;;;;;;;5025003;28;19913;-82
2022/04/10 11:43:34;;;;;;;;;;;;;;;;;;5026602;28;19913;-83
2022/04/10 11:46:20;;;;;;;;;;;;;;;;;;5034255;28;20265;-82
2022/04/10 11:49:07;;;;;;;;;;;;;;;;;;5040795;28;19909;-84
2022/04/10 11:51:53;;;;;;;;;;;;;;;;;;5055375;28;19917;-83
2022/04/10 11:54:40;;;;;;;;;;;;;;;;;;5037974;28;19913;-80
2022/04/10 11:57:26;;;;;;;;;;;;;;;;;;5023554;28;19910;-81
2022/04/10 12:00:13;;;;;;;;;;;;;;;;;;5025435;28;19913;-82
2022/04/10 12:02:59;;;;;;;;;;;;;;;;;;5027180;28;19917;-79
2022/04/10 12:05:46;;;;;;;;;;;;;;;;;;5038028;28;20281;-81
2022/04/10 12:08:32;;;;;;;;;;;;;;;;;;5041962;28;19913;-80
2022/04/10 12:11:19;;;;;;;;;;;;;;;;;;5031106;28;20285;-78
2022/04/10 12:14:05;;;;;;;;;;;;;;;;;;5018764;28;20011;-81
2022/04/10 12:16:53;;;;;;;;;;;;;;;;;;5023454;28;19920;-81
2022/04/10 12:19:39;;;;;;;;;;;;;;;;;;5025403;28;19913;-80
2022/04/10 12:22:26;;;;;;;;;;;;;;;;;;5015567;28;19918;-79
2022/04/10 12:25:12;;;;;;;;;;;;;;;;;;5041020;28;19913;-79
2022/04/10 12:27:59;;;;;;;;;;;;;;;;;;5034404;28;19921;-81
2022/04/10 12:30:45;;;;;;;;;;;;;;;;;;5026786;28;19925;-81
2022/04/10 12:33:32;;;;;;;;;;;;;;;;;;5029348;28;19924;-82
2022/04/10 12:36:18;;;;;;;;;;;;;;;;;;5017207;28;19920;-80
2022/04/10 12:39:07;;;;;;;;;;;;;;;;;;5032313;28;19920;-82
2022/04/10 12:41:59;;;;;;;;;;;;;;;;;;5020976;28;19917;-80
2022/04/10 12:44:46;;;;;;;;;;;;;;;;;;5019599;28;19928;-81
2022/04/10 12:47:32;;;;;;;;;;;;;;;;;;5022090;28;19920;-81
2022/04/10 12:50:19;;;;;;;;;;;;;;;;;;5024432;28;19984;-82
2022/04/10 12:53:05;;;;;;;;;;;;;;;;;;5035225;28;19913;-82
2022/04/10 12:55:52;;;;;;;;;;;;;;;;;;5025768;28;19917;-81
2022/04/10 12:58:38;;;;;;;;;;;;;;;;;;5042976;28;19914;-80
2022/04/10 13:01:25;;;;;;;;;;;;;;;;;;5033619;28;19913;-81
2022/04/10 13:04:11;;;;;;;;;;;;;;;;;;5036573;28;19909;-80
2022/04/10 13:06:58;;;;;;;;;;;;;;;;;;5035025;28;19917;-83
2022/04/10 13:09:44;;;;;;;;;;;;;;;;;;5016983;28;19924;-82
2022/04/10 13:12:31;;;;;;;;;;;;;;;;;;5018714;28;19917;-81
2022/04/10 13:15:17;;;;;;;;;;;;;;;;;;5009668;28;19945;-82
2022/04/10 13:18:04;;;;;;;;;;;;;;;;;;5019963;28;20300;-80
2022/04/10 13:20:50;;;;;;;;;;;;;;;;;;5019680;28;19921;-80
2022/04/10 13:23:36;;;;;;;;;;;;;;;;;;5007357;28;20258;-81
2022/04/10 13:26:23;;;;;;;;;;;;;;;;;;5015419;28;19922;-79
2022/04/10 13:29:10;;;;;;;;;;;;;;;;;;5026700;28;19925;-80
2022/04/10 13:31:57;;;;;;;;;;;;;;;;;;5032064;28;19917;-81
2022/04/10 13:34:43;;;;;;;;;;;;;;;;;;5016206;28;19913;-81
2022/04/10 13:37:30;;;;;;;;;;;;;;;;;;5015755;28;19910;-80
2022/04/10 13:40:16;;;;;;;;;;;;;;;;;;5020690;28;19917;-81
2022/04/10 13:43:03;;;;;;;;;;;;;;;;;;5012712;28;19913;-81
2022/04/10 13:45:49;;;;;;;;;;;;;;;;;;5024196;28;19917;-82
2022/04/10 13:48:36;;;;;;;;;;;;;;;;;;5023158;28;19920;-82
2022/04/10 13:51:22;;;;;;;;;;;;;;;;;;5022450;28;19921;-83
2022/04/10 13:54:09;;;;;;;;;;;;;;;;;;5034162;28;19913;-83
2022/04/10 13:56:55;;;;;;;;;;;;;;;;;;5020770;28;19939;-83
2022/04/10 13:59:42;;;;;;;;;;;;;;;;;;5020378;28;19910;-83
2022/04/10 14:02:28;;;;;;;;;;;;;;;;;;5028259;28;19916;-83
2022/04/10 14:05:15;;;;;;;;;;;;;;;;;;5043687;28;19962;-84
2022/04/10 14:08:01;;;;;;;;;;;;;;;;;;5028583;28;19909;-81
2022/04/10 14:10:48;;;;;;;;;;;;;;;;;;5033349;28;20272;-81
2022/04/10 14:13:34;;;;;;;;;;;;;;;;;;5031328;28;19913;-81
2022/04/10 14:16:21;;;;;;;;;;;;;;;;;;5035991;28;19925;-82
2022/04/10 14:19:07;;;;;;;;;;;;;;;;;;5043479;28;20344;-82
2022/04/10 14:21:54;;;;;;;;;;;;;;;;;;5025345;28;19917;-81
2022/04/10 14:24:41;;;;;;;;;;;;;;;;;;5021356;28;19909;-81
2022/04/10 14:27:27;;;;;;;;;;;;;;;;;;5025312;28;19908;-80
2022/04/10 14:30:13;;;;;;;;;;;;;;;;;;5023204;28;19926;-81
2022/04/10 14:33:00;;;;;;;;;;;;;;;;;;5021853;28;19909;-81
2022/04/10 14:35:46;;;;;;;;;;;;;;;;;;5018772;28;19909;-81
2022/04/10 14:38:33;;;;;;;;;;;;;;;;;;5029586;28;19909;-84
2022/04/10 14:41:20;;;;;;;;;;;;;;;;;;5031303;28;19921;-85
2022/04/10 14:44:06;;;;;;;;;;;;;;;;;;5029803;28;19920;-87
2022/04/10 14:46:53;;;;;;;;;;;;;;;;;;5011035;28;19909;-86
2022/04/10 14:49:39;;;;;;;;;;;;;;;;;;5024648;28;20496;-85
2022/04/10 14:52:26;;;;;;;;;;;;;;;;;;5019537;28;19921;-82
2022/04/10 14:55:13;;;;;;;;;;;;;;;;;;5023136;28;20377;-84
2022/04/10 14:57:59;;;;;;;;;;;;;;;;;;5014991;28;19916;-83
2022/04/10 15:00:46;;;;;;;;;;;;;;;;;;5036245;28;19913;-83
2022/04/10 15:03:32;;;;;;;;;;;;;;;;;;5008763;28;19936;-83
2022/04/10 15:06:19;;;;;;;;;;;;;;;;;;5016706;28;19918;-82
2022/04/10 15:09:05;;;;;;;;;;;;;;;;;;5021652;28;19985;-83
2022/04/10 15:11:51;;;;;;;;;;;;;;;;;;5027141;28;20300;-85
2022/04/10 15:14:38;;;;;;;;;;;;;;;;;;5015433;28;20541;-87
2022/04/10 15:17:24;;;;;;;;;;;;;;;;;;5025851;28;19909;-87
2022/04/10 15:20:11;;;;;;;;;;;;;;;;;;5022747;28;19945;-87
2022/04/10 15:22:57;;;;;;;;;;;;;;;;;;5038635;28;19916;-86
2022/04/10 15:25:44;;;;;;;;;;;;;;;;;;5019436;28;19913;-85
2022/04/10 15:28:32;;;;;;;;;;;;;;;;;;5015292;28;19921;-83
2022/04/10 15:31:19;;;;;;;;;;;;;;;;;;5012754;28;19927;-84
2022/04/10 15:34:05;;;;;;;;;;;;;;;;;;5023501;28;19916;-85
2022/04/10 15:36:52;;;;;;;;;;;;;;;;;;5018411;28;19916;-84
2022/04/10 15:39:38;;;;;;;;;;;;;;;;;;5049567;28;19983;-85
2022/04/10 15:42:25;;;;;;;;;;;;;;;;;;5011847;28;19957;-83
2022/04/10 15:45:11;;;;;;;;;;;;;;;;;;5035107;28;19909;-82
2022/04/10 15:47:59;;;;;;;;;;;;;;;;;;5033696;28;19916;-83
2022/04/10 15:50:46;;;;;;;;;;;;;;;;;;5030137;28;20401;-81
2022/04/10 15:53:32;;;;;;;;;;;;;;;;;;5032013;28;19920;-85
2022/04/10 15:56:19;;;;;;;;;;;;;;;;;;5022263;28;19913;-84
2022/04/10 15:59:05;;;;;;;;;;;;;;;;;;5023427;28;20281;-82
2022/04/10 16:01:52;;;;;;;;;;;;;;;;;;5017151;28;20432;-83
2022/04/10 16:04:38;;;;;;;;;;;;;;;;;;5017252;28;20396;-83
2022/04/10 16:07:25;;;;;;;;;;;;;;;;;;5030731;28;19913;-83
2022/04/10 16:10:11;;;;;;;;;;;;;;;;;;5028883;28;20008;-83
2022/04/10 16:12:58;;;;;;;;;;;;;;;;;;5021762;28;19926;-85
2022/04/10 16:15:45;;;;;;;;;;;;;;;;;;5026071;28;19917;-83
2022/04/10 16:18:31;;;;;;;;;;;;;;;;;;5019860;28;19914;-83
2022/04/10 16:21:18;;;;;;;;;;;;;;;;;;5020232;28;19921;-83
2022/04/10 16:24:05;;;;;;;;;;;;;;;;;;5031714;28;19921;-84
2022/04/10 16:30:10;;;;;;;;;;;;;;;;;;4997861;28;19931;-84
2022/04/10 16:32:58;;;;;;;;;;;;;;;;;;5001505;28;20400;-86
2022/04/10 16:35:44;;;;;;;;;;;;;;;;;;4997278;28;19913;-84
2022/04/10 16:38:33;;;;;;;;;;;;;;;;;;4996765;28;19909;-84
2022/04/10 16:41:20;;;;;;;;;;;;;;;;;;4998754;28;19917;-82
2022/04/10 16:44:06;;;;;;;;;;;;;;;;;;4998339;28;19914;-84
2022/04/10 16:46:53;;;;;;;;;;;;;;;;;;5002059;28;19914;-83
2022/04/10 16:49:39;;;;;;;;;;;;;;;;;;4997617;28;19909;-84
2022/04/10 16:52:26;;;;;;;;;;;;;;;;;;5015476;28;19948;-85
2022/04/10 16:55:12;;;;;;;;;;;;;;;;;;5011848;28;19913;-85
2022/04/10 16:57:59;;;;;;;;;;;;;;;;;;4999358;28;19913;-84
2022/04/10 17:00:45;;;;;;;;;;;;;;;;;;5009000;28;19917;-84
2022/04/10 17:03:32;;;;;;;;;;;;;;;;;;4996529;28;20285;-83
2022/04/10 17:06:18;;;;;;;;;;;;;;;;;;5004827;28;19916;-86
2022/04/10 17:09:05;;;;;;;;;;;;;;;;;;5001539;28;20661;-83
2022/04/10 17:11:51;;;;;;;;;;;;;;;;;;4992966;28;19922;-83
2022/04/10 17:14:38;;;;;;;;;;;;;;;;;;4996483;28;20277;-82
2022/04/10 17:17:25;;;;;;;;;;;;;;;;;;5013874;28;19921;-81
2022/04/10 17:20:13;;;;;;;;;;;;;;;;;;4997892;28;19914;-83
2022/04/10 17:23:00;;;;;;;;;;;;;;;;;;4994150;28;20298;-85
2022/04/10 17:25:46;;;;;;;;;;;;;;;;;;5007995;28;19928;-85
2022/04/10 17:28:33;;;;;;;;;;;;;;;;;;5024360;28;20395;-88
2022/04/10 17:31:19;;;;;;;;;;;;;;;;;;5017692;28;19922;-85
2022/04/10 17:34:06;;;;;;;;;;;;;;;;;;5012081;28;19920;-85
2022/04/10 17:36:52;;;;;;;;;;;;;;;;;;5014489;28;19915;-85
2022/04/10 17:39:39;;;;;;;;;;;;;;;;;;5014688;28;19909;-86
2022/04/10 17:42:25;;;;;;;;;;;;;;;;;;5022209;28;19934;-88
2022/04/10 17:45:12;;;;;;;;;;;;;;;;;;5025956;28;19916;-88
2022/04/10 17:47:58;;;;;;;;;;;;;;;;;;5031959;28;19913;-89
2022/04/10 17:50:45;;;;;;;;;;;;;;;;;;5023899;28;20430;-87
2022/04/10 17:53:31;;;;;;;;;;;;;;;;;;5026869;28;19919;-87
2022/04/10 17:56:19;;;;;;;;;;;;;;;;;;5023128;28;19916;-88
2022/04/10 17:59:06;;;;;;;;;;;;;;;;;;5033078;28;19920;-87
2022/04/10 18:01:52;;;;;;;;;;;;;;;;;;5022992;28;20016;-87
2022/04/10 18:04:40;;;;;;;;;;;;;;;;;;5011768;28;19913;-89
2022/04/10 18:07:27;;;;;;;;;;;;;;;;;;5028068;28;19921;-84
2022/04/10 18:10:14;;;;;;;;;;;;;;;;;;5009809;28;19920;-85
2022/04/10 18:13:01;;;;;;;;;;;;;;;;;;5026750;28;20308;-88
2022/04/10 18:15:49;;;;;;;;;;;;;;;;;;5034129;28;19920;-86
2022/04/10 18:18:35;;;;;;;;;;;;;;;;;;5019971;28;19914;-85
2022/04/10 18:21:22;;;;;;;;;;;;;;;;;;5037800;28;19909;-90
2022/04/10 18:24:08;;;;;;;;;;;;;;;;;;5039407;28;20369;-91
2022/04/10 18:26:55;;;;;;;;;;;;;;;;;;5040664;28;19917;-90
2022/04/10 18:29:41;;;;;;;;;;;;;;;;;;5041591;28;19921;-91
2022/04/10 18:32:28;;;;;;;;;;;;;;;;;;5042249;28;20297;-91
2022/04/10 18:35:14;;;;;;;;;;;;;;;;;;5055453;28;19919;-91
2022/04/10 18:38:01;;;;;;;;;;;;;;;;;;5043378;28;19909;-86
2022/04/10 18:40:47;;;;;;;;;;;;;;;;;;5032184;28;19921;-92
2022/04/10 18:43:34;;;;;;;;;;;;;;;;;;5030269;28;19909;-91
2022/04/10 18:46:21;;;;;;;;;;;;;;;;;;5043580;28;19913;-91
2022/04/10 18:52:13;;;;;;;;;;;;;;;;;;5031983;28;19925;-90
2022/04/10 18:54:59;;;;;;;;;;;;;;;;;;5053975;28;19909;-91
2022/04/10 18:57:46;;;;;;;;;;;;;;;;;;5032607;28;20222;-93
2022/04/10 19:00:33;;;;;;;;;;;;;;;;;;5029211;28;19919;-91
2022/04/10 19:03:19;;;;;;;;;;;;;;;;;;5043433;28;19909;-92
2022/04/10 19:06:06;;;;;;;;;;;;;;;;;;5048740;28;19932;-89
2022/04/10 19:08:52;;;;;;;;;;;;;;;;;;5037656;28;19921;-90